Time;durP1;ratioP1;P1;durP2;ratioP2;P2;SDS_P1;SDS_P2;PMS_P1;PMS_P2;Temp;Humidity;BMP_temperature;BMP_pressure;BME280_temperature;BME280_humidity;BME280_pressure;Samples;Min_cycle;Max_cycle;Signal;HPM_P1;HPM_P2
2022/03/17 00:00:03;;;;;;;21.45;18.55;;;12.80;96.10;;;;;;5003314;28;20214;-80
2022/03/17 00:02:32;;;;;;;24.13;19.38;;;12.80;95.90;;;;;;4994009;28;20570;-80
2022/03/17 00:05:00;;;;;;;21.52;18.77;;;12.70;96.00;;;;;;4991630;28;20205;-80
2022/03/17 00:07:27;;;;;;;22.98;20.35;;;12.80;96.00;;;;;;5002157;28;20238;-80
2022/03/17 00:09:55;;;;;;;24.08;19.88;;;12.70;96.20;;;;;;4976454;28;20209;-80
2022/03/17 00:12:22;;;;;;;23.52;19.63;;;12.70;96.00;;;;;;4980829;28;20201;-80
2022/03/17 00:14:51;;;;;;;22.23;19.75;;;12.80;95.80;;;;;;4983560;28;20207;-80
2022/03/17 00:17:18;;;;;;;24.73;19.45;;;12.80;95.90;;;;;;5003834;28;20227;-80
2022/03/17 00:19:47;;;;;;;22.92;19.40;;;12.80;96.00;;;;;;4977170;28;20578;-80
2022/03/17 00:22:16;;;;;;;22.38;18.88;;;12.80;95.70;;;;;;4982792;28;20207;-80
2022/03/17 00:24:44;;;;;;;24.42;19.70;;;12.80;95.70;;;;;;4983155;28;20212;-80
2022/03/17 00:27:12;;;;;;;25.48;20.95;;;12.80;95.90;;;;;;4977379;28;20211;-79
2022/03/17 00:29:41;;;;;;;23.50;19.88;;;12.80;95.80;;;;;;4986091;28;20234;-80
2022/03/17 00:32:09;;;;;;;21.85;19.52;;;12.80;95.80;;;;;;4998995;28;20197;-80
2022/03/17 00:35:35;;;;;;;23.25;20.80;;;12.80;95.90;;;;;;4984049;28;20204;-80
2022/03/17 00:37:26;;;;;;;23.10;19.90;;;12.80;95.80;;;;;;4989448;28;20232;-80
2022/03/17 00:39:54;;;;;;;22.73;19.70;;;12.80;96.20;;;;;;4984395;28;20204;-80
2022/03/17 00:42:22;;;;;;;22.40;19.45;;;12.80;95.90;;;;;;4997443;28;20184;-80
2022/03/17 00:44:50;;;;;;;24.63;19.92;;;12.80;95.80;;;;;;4985093;28;20227;-80
2022/03/17 00:47:17;;;;;;;23.90;20.73;;;12.80;95.90;;;;;;4975763;28;20227;-80
2022/03/17 00:49:45;;;;;;;22.67;19.93;;;12.80;96.00;;;;;;4990026;28;20673;-80
2022/03/17 00:52:12;;;;;;;23.05;19.95;;;12.80;96.40;;;;;;4997983;28;20197;-80
2022/03/17 00:54:42;;;;;;;25.42;20.95;;;12.80;96.20;;;;;;5013186;28;20211;-79
2022/03/17 00:57:12;;;;;;;24.88;21.40;;;12.80;96.30;;;;;;4996522;28;20211;-80
2022/03/17 00:59:41;;;;;;;23.30;19.35;;;12.70;96.40;;;;;;4998981;28;20208;-80
2022/03/17 01:02:08;;;;;;;24.00;20.85;;;12.70;96.50;;;;;;4993440;28;20216;-80
2022/03/17 01:04:36;;;;;;;24.50;20.48;;;12.70;96.20;;;;;;5005871;28;20220;-80
2022/03/17 01:07:05;;;;;;;22.90;19.05;;;12.70;96.30;;;;;;4987311;28;20207;-80
2022/03/17 01:09:32;;;;;;;25.02;20.38;;;12.70;96.20;;;;;;5010730;28;20200;-80
2022/03/17 01:12:02;;;;;;;26.33;20.60;;;12.70;96.10;;;;;;5008546;28;20208;-80
2022/03/17 01:14:29;;;;;;;24.53;20.80;;;12.70;96.10;;;;;;5008745;28;20200;-80
2022/03/17 01:17:00;;;;;;;22.88;20.08;;;12.70;96.20;;;;;;4999133;28;20200;-80
2022/03/17 01:19:27;;;;;;;24.50;20.60;;;12.70;96.20;;;;;;4989711;28;20671;-80
2022/03/17 01:21:55;;;;;;;22.73;20.20;;;12.70;96.10;;;;;;4983912;28;20204;-80
2022/03/17 01:24:22;;;;;;;24.50;19.75;;;12.70;96.30;;;;;;4997964;28;20224;-80
2022/03/17 01:26:50;;;;;;;24.33;20.67;;;12.70;96.10;;;;;;4996904;28;20195;-79
2022/03/17 01:29:19;;;;;;;23.73;21.05;;;12.70;96.20;;;;;;4988525;28;20239;-80
2022/03/17 01:31:47;;;;;;;23.45;20.80;;;12.70;96.30;;;;;;5006517;28;20219;-80
2022/03/17 01:34:16;;;;;;;23.77;20.08;;;12.70;96.30;;;;;;4988540;28;20204;-80
2022/03/17 01:36:43;;;;;;;26.02;20.50;;;12.70;96.30;;;;;;4987026;28;20223;-80
2022/03/17 01:39:11;;;;;;;24.77;20.27;;;12.60;96.30;;;;;;5005676;28;20228;-80
2022/03/17 01:41:39;;;;;;;25.27;21.30;;;12.60;96.40;;;;;;5005000;28;20569;-80
2022/03/17 01:44:07;;;;;;;23.20;19.60;;;12.60;96.30;;;;;;4997960;28;20217;-80
2022/03/17 01:49:17;;;;;;;25.30;21.25;;;12.60;96.60;;;;;;4979591;28;20225;-80
2022/03/17 01:51:45;;;;;;;23.52;20.02;;;12.60;96.50;;;;;;4983308;28;20204;-80
2022/03/17 01:54:12;;;;;;;23.77;20.67;;;12.50;96.40;;;;;;5012705;28;20192;-80
2022/03/17 01:56:40;;;;;;;23.77;20.77;;;12.60;96.40;;;;;;5004895;28;20191;-80
2022/03/17 01:59:07;;;;;;;27.02;19.88;;;12.60;96.50;;;;;;5000782;28;20223;-80
2022/03/17 02:01:38;;;;;;;23.85;21.02;;;12.60;96.70;;;;;;4988256;28;20200;-80
2022/03/17 02:04:06;;;;;;;26.42;21.45;;;12.50;96.60;;;;;;5003175;28;20215;-80
2022/03/17 02:06:33;;;;;;;24.27;20.83;;;12.50;96.60;;;;;;4978758;28;20204;-80
2022/03/17 02:09:01;;;;;;;24.90;20.35;;;12.50;96.80;;;;;;4987005;28;20695;-79
2022/03/17 02:14:14;;;;;;;24.08;20.42;;;12.50;96.70;;;;;;4990067;28;20665;-80
2022/03/17 02:16:43;;;;;;;25.38;20.70;;;12.50;96.70;;;;;;5000374;28;20200;-80
2022/03/17 02:19:10;;;;;;;26.15;21.92;;;12.50;96.80;;;;;;4999509;28;20227;-80
2022/03/17 02:21:39;;;;;;;26.00;20.40;;;12.50;96.80;;;;;;4977588;28;20659;-80
2022/03/17 02:26:54;;;;;;;25.20;21.75;;;12.40;96.90;;;;;;4979328;28;20629;-80
2022/03/17 02:29:21;;;;;;;24.58;20.67;;;12.50;96.90;;;;;;4979776;28;20211;-80
2022/03/17 02:31:50;;;;;;;25.27;20.98;;;12.50;96.90;;;;;;4970412;28;20208;-80
2022/03/17 02:34:18;;;;;;;26.23;20.30;;;12.50;96.90;;;;;;4991092;28;20201;-80
2022/03/17 02:36:47;;;;;;;26.92;21.98;;;12.50;96.90;;;;;;4979317;28;20204;-79
2022/03/17 02:39:17;;;;;;;26.23;20.98;;;12.50;97.10;;;;;;4979847;28;20224;-79
2022/03/17 02:41:45;;;;;;;26.53;22.20;;;12.50;97.00;;;;;;4989875;28;20201;-80
2022/03/17 02:44:13;;;;;;;25.45;21.88;;;12.40;96.90;;;;;;5007237;28;20224;-80
2022/03/17 02:46:40;;;;;;;23.88;21.17;;;12.40;97.00;;;;;;4978701;28;20223;-80
2022/03/17 02:49:07;;;;;;;27.53;22.90;;;12.50;97.10;;;;;;4999103;28;20226;-81
2022/03/17 02:51:35;;;;;;;26.20;20.55;;;12.50;97.20;;;;;;4987444;28;20212;-80
2022/03/17 02:54:02;;;;;;;24.37;21.73;;;12.40;97.10;;;;;;4983659;28;20527;-81
2022/03/17 02:56:32;;;;;;;25.90;22.00;;;12.50;97.30;;;;;;4999038;28;20714;-79
2022/03/17 02:58:59;;;;;;;25.10;21.58;;;12.40;97.30;;;;;;4977895;28;20220;-80
2022/03/17 03:01:27;;;;;;;26.60;21.25;;;12.40;97.20;;;;;;5008143;28;20212;-80
2022/03/17 03:03:55;;;;;;;25.33;20.77;;;12.40;97.40;;;;;;4976262;28;20200;-80
2022/03/17 03:06:22;;;;;;;25.83;21.17;;;12.40;97.60;;;;;;4993355;28;20200;-79
2022/03/17 03:08:49;;;;;;;26.38;20.42;;;12.40;98.00;;;;;;4995679;28;20227;-80
2022/03/17 03:11:17;;;;;;;25.27;20.73;;;12.40;97.60;;;;;;4982209;28;20196;-80
2022/03/17 03:13:45;;;;;;;28.50;22.23;;;12.30;97.60;;;;;;5007904;28;20215;-80
2022/03/17 03:16:13;;;;;;;25.00;19.77;;;12.40;97.90;;;;;;5003998;28;20204;-80
2022/03/17 03:18:41;;;;;;;27.63;22.13;;;12.40;97.80;;;;;;4996475;28;20220;-80
2022/03/17 03:21:09;;;;;;;25.53;20.57;;;12.40;97.80;;;;;;4977171;28;20200;-79
2022/03/17 03:23:37;;;;;;;27.98;21.58;;;12.30;97.80;;;;;;4980867;28;20204;-80
2022/03/17 03:26:04;;;;;;;26.40;21.50;;;12.40;97.90;;;;;;4979317;28;20224;-80
2022/03/17 03:28:31;;;;;;;25.52;21.50;;;12.30;98.10;;;;;;5002579;28;20235;-80
2022/03/17 03:31:00;;;;;;;24.03;21.40;;;12.40;98.00;;;;;;4985556;28;20207;-80
2022/03/17 03:33:28;;;;;;;25.73;21.88;;;12.30;98.20;;;;;;5003536;28;20211;-80
2022/03/17 03:38:40;;;;;;;26.27;22.23;;;12.30;98.20;;;;;;5000917;28;20212;-80
2022/03/17 03:41:07;;;;;;;25.30;21.73;;;12.40;98.30;;;;;;4997911;28;20196;-80
2022/03/17 03:43:34;;;;;;;26.30;22.08;;;12.30;98.40;;;;;;4994790;28;20677;-80
2022/03/17 03:46:03;;;;;;;26.50;21.42;;;12.30;98.30;;;;;;4996455;28;20247;-80
2022/03/17 03:48:31;;;;;;;28.27;22.73;;;12.30;98.50;;;;;;4981197;28;20231;-80
2022/03/17 03:50:59;;;;;;;27.30;23.05;;;12.30;98.50;;;;;;4995355;28;20199;-80
2022/03/17 03:54:12;;;;;;;26.50;21.30;;;12.20;98.50;;;;;;4979847;28;20208;-80
2022/03/17 03:56:14;;;;;;;24.95;21.38;;;12.20;98.60;;;;;;5000362;28;20216;-80
2022/03/17 03:58:42;;;;;;;26.52;22.83;;;12.20;98.80;;;;;;4976128;28;20224;-80
2022/03/17 04:01:10;;;;;;;26.38;22.77;;;12.20;98.80;;;;;;4985482;28;20203;-80
2022/03/17 04:03:38;;;;;;;26.83;22.42;;;12.20;98.90;;;;;;4994915;28;20682;-79
2022/03/17 04:06:05;;;;;;;25.23;21.90;;;12.20;98.90;;;;;;4992102;28;20224;-80
2022/03/17 04:08:32;;;;;;;26.60;22.27;;;12.20;99.00;;;;;;4988291;28;20234;-80
2022/03/17 04:11:00;;;;;;;26.63;21.97;;;12.20;99.10;;;;;;4978963;28;20195;-79
2022/03/17 04:13:27;;;;;;;28.27;22.50;;;12.20;99.00;;;;;;4982244;28;20208;-80
2022/03/17 04:15:54;;;;;;;27.57;22.50;;;12.20;99.10;;;;;;4982000;28;20201;-80
2022/03/17 04:18:23;;;;;;;24.83;21.77;;;12.20;99.00;;;;;;4980699;28;20220;-80
2022/03/17 04:20:51;;;;;;;26.83;22.30;;;12.20;99.20;;;;;;4978002;28;20562;-80
2022/03/17 04:23:18;;;;;;;28.05;23.77;;;12.20;99.30;;;;;;4970131;28;20228;-80
2022/03/17 04:25:45;;;;;;;27.77;22.40;;;12.20;99.30;;;;;;4983190;28;20231;-80
2022/03/17 04:28:13;;;;;;;29.07;23.67;;;12.20;99.50;;;;;;4998423;28;20686;-80
2022/03/17 04:30:40;;;;;;;27.37;22.90;;;12.10;99.90;;;;;;4980607;28;20212;-80
2022/03/17 04:33:08;;;;;;;28.93;24.07;;;12.20;99.80;;;;;;4985701;28;20204;-80
2022/03/17 04:35:36;;;;;;;27.20;22.55;;;12.10;99.90;;;;;;4978404;28;20682;-80
2022/03/17 04:38:04;;;;;;;27.60;22.77;;;12.10;99.90;;;;;;5000409;28;20236;-80
2022/03/17 04:40:31;;;;;;;27.65;22.27;;;12.10;99.90;;;;;;4981956;28;20200;-80
2022/03/17 04:42:58;;;;;;;27.30;22.70;;;12.10;99.90;;;;;;5000281;28;20243;-80
2022/03/17 04:45:26;;;;;;;31.10;24.73;;;12.10;99.90;;;;;;4977994;28;20235;-80
2022/03/17 04:47:53;;;;;;;29.52;24.90;;;12.10;99.90;;;;;;4997323;28;20227;-80
2022/03/17 04:50:20;;;;;;;27.77;22.80;;;12.10;99.90;;;;;;4994603;28;20208;-80
2022/03/17 04:55:34;;;;;;;29.20;24.47;;;12.10;99.90;;;;;;4981985;28;20196;-80
2022/03/17 04:58:01;;;;;;;27.48;23.38;;;12.10;99.90;;;;;;5002194;28;20220;-80
2022/03/17 05:00:29;;;;;;;29.73;22.83;;;12.10;99.90;;;;;;4984712;28;20207;-79
2022/03/17 05:02:56;;;;;;;27.40;24.20;;;12.10;99.90;;;;;;4979134;28;20196;-81
2022/03/17 05:05:24;;;;;;;27.05;23.90;;;12.10;99.90;;;;;;5003719;28;20219;-80
2022/03/17 05:07:57;;;;;;;30.45;25.33;;;12.10;99.90;;;;;;4998246;28;20223;-80
2022/03/17 05:10:25;;;;;;;30.33;23.60;;;12.10;99.90;;;;;;4988214;28;20669;-80
2022/03/17 05:12:52;;;;;;;28.60;24.40;;;12.20;99.90;;;;;;4980591;28;20208;-81
2022/03/17 05:15:20;;;;;;;29.40;25.17;;;12.10;99.90;;;;;;4996840;28;20658;-79
2022/03/17 05:17:48;;;;;;;32.63;25.53;;;12.20;99.90;;;;;;4984641;28;20238;-80
2022/03/17 05:20:15;;;;;;;27.67;23.87;;;12.10;99.90;;;;;;5000894;28;20681;-80
2022/03/17 05:22:43;;;;;;;36.87;25.10;;;12.10;99.90;;;;;;4989123;28;20220;-80
2022/03/17 05:25:13;;;;;;;32.23;25.13;;;12.00;99.90;;;;;;4987385;28;20219;-79
2022/03/17 05:27:41;;;;;;;33.90;27.47;;;11.90;99.90;;;;;;4987320;28;20234;-79
2022/03/17 05:30:11;;;;;;;32.95;27.02;;;11.90;99.90;;;;;;4997377;28;20200;-80
2022/03/17 05:32:38;;;;;;;34.53;27.00;;;11.80;99.90;;;;;;5000740;28;20207;-80
2022/03/17 05:35:06;;;;;;;34.77;28.27;;;11.70;99.90;;;;;;4982754;28;20196;-80
2022/03/17 05:37:34;;;;;;;35.67;28.70;;;11.60;99.90;;;;;;4977034;28;20224;-80
2022/03/17 05:40:02;;;;;;;36.70;28.90;;;11.60;99.90;;;;;;5003544;28;20549;-80
2022/03/17 05:42:31;;;;;;;37.20;28.57;;;11.50;99.90;;;;;;4997433;28;20211;-80
2022/03/17 05:44:58;;;;;;;39.80;30.67;;;11.50;99.90;;;;;;4992810;28;20207;-79
2022/03/17 05:47:26;;;;;;;37.17;30.40;;;11.30;99.90;;;;;;4998646;28;20232;-80
2022/03/17 05:49:53;;;;;;;39.17;29.93;;;11.30;99.90;;;;;;4992121;28;20565;-80
2022/03/17 05:52:21;;;;;;;40.00;30.77;;;11.20;99.90;;;;;;4997664;28;20200;-80
2022/03/17 05:54:48;;;;;;;41.10;31.30;;;11.00;99.90;;;;;;4979665;28;20204;-81
2022/03/17 05:57:16;;;;;;;37.03;29.67;;;11.20;99.90;;;;;;5011023;28;20221;-80
2022/03/17 05:59:44;;;;;;;41.50;32.10;;;11.10;99.90;;;;;;4989170;28;20208;-79
2022/03/17 06:02:12;;;;;;;42.37;32.13;;;11.10;99.90;;;;;;4998970;28;20558;-80
2022/03/17 06:04:41;;;;;;;40.83;32.57;;;11.00;99.90;;;;;;4996147;28;20205;-80
2022/03/17 06:07:09;;;;;;;40.90;32.40;;;11.10;99.90;;;;;;4996037;28;20229;-78
2022/03/17 06:09:40;;;;;;;45.73;32.67;;;10.90;99.90;;;;;;5000252;28;20231;-79
2022/03/17 06:12:15;;;;;;;43.43;32.87;;;11.10;99.90;;;;;;4996009;28;20207;-81
2022/03/17 06:14:45;;;;;;;47.37;36.03;;;11.10;99.90;;;;;;4975161;28;20208;-79
2022/03/17 06:17:13;;;;;;;48.40;35.93;;;11.00;99.90;;;;;;4998678;28;20208;-79
2022/03/17 06:19:40;;;;;;;47.83;36.77;;;10.80;99.90;;;;;;4986505;28;20200;-80
2022/03/17 06:22:08;;;;;;;51.57;36.37;;;10.70;99.90;;;;;;4980689;28;20201;-79
2022/03/17 06:24:55;;;;;;;52.53;38.30;;;10.80;99.90;;;;;;4970275;28;20205;-79
2022/03/17 06:27:22;;;;;;;54.20;39.57;;;10.70;99.90;;;;;;4975028;28;20729;-79
2022/03/17 06:29:52;;;;;;;53.23;39.60;;;10.60;99.90;;;;;;4989531;28;20231;-79
2022/03/17 06:32:30;;;;;;;56.73;41.23;;;10.60;99.90;;;;;;4975898;28;20208;-79
2022/03/17 06:35:19;;;;;;;58.87;41.73;;;10.60;99.90;;;;;;4991792;28;20195;-79
2022/03/17 06:37:48;;;;;;;56.23;40.80;;;10.50;99.90;;;;;;4995081;28;20219;-82
2022/03/17 06:40:17;;;;;;;55.73;40.03;;;10.40;99.90;;;;;;4999445;28;20195;-79
2022/03/17 06:42:47;;;;;;;62.10;44.00;;;10.40;99.90;;;;;;4973139;28;20659;-79
2022/03/17 06:45:17;;;;;;;60.27;42.00;;;10.20;99.90;;;;;;4976656;28;20204;-79
2022/03/17 06:47:49;;;;;;;64.40;43.90;;;10.50;99.90;;;;;;4986036;28;20596;-79
2022/03/17 06:50:18;;;;;;;49.33;35.07;;;10.50;99.90;;;;;;4975554;28;20208;-80
2022/03/17 06:52:46;;;;;;;37.00;27.80;;;10.40;99.90;;;;;;4967215;28;20208;-79
2022/03/17 06:55:13;;;;;;;34.97;26.40;;;10.30;99.90;;;;;;5001455;28;20302;-80
2022/03/17 06:57:42;;;;;;;33.30;23.23;;;10.20;99.90;;;;;;4995223;28;20213;-79
2022/03/17 07:00:12;;;;;;;33.93;23.90;;;10.00;99.90;;;;;;4975410;28;20212;-80
2022/03/17 07:02:44;;;;;;;34.27;25.23;;;9.90;99.90;;;;;;4994667;28;20204;-81
2022/03/17 07:05:17;;;;;;;33.57;24.50;;;9.90;99.90;;;;;;4992045;28;20213;-81
2022/03/17 07:07:45;;;;;;;27.63;21.83;;;10.00;99.90;;;;;;4991630;28;20225;-82
2022/03/17 07:10:15;;;;;;;28.20;21.23;;;9.80;99.90;;;;;;4976199;28;20219;-80
2022/03/17 07:12:47;;;;;;;24.17;18.30;;;9.90;99.90;;;;;;5000105;28;20530;-80
2022/03/17 07:15:15;;;;;;;26.07;18.27;;;9.80;99.90;;;;;;4973733;28;20570;-79
2022/03/17 07:17:43;;;;;;;21.63;16.87;;;9.80;99.90;;;;;;4972317;28;20216;-81
2022/03/17 07:20:20;;;;;;;22.80;17.20;;;9.80;99.90;;;;;;4978478;28;20196;-82
2022/03/17 07:22:50;;;;;;;23.07;16.80;;;9.80;99.90;;;;;;4999760;28;20196;-80
2022/03/17 07:25:19;;;;;;;20.90;16.13;;;9.80;99.90;;;;;;4993224;28;20200;-79
2022/03/17 07:27:48;;;;;;;24.03;16.90;;;9.70;99.90;;;;;;4993028;28;20578;-80
2022/03/17 07:30:18;;;;;;;22.67;15.50;;;9.90;99.90;;;;;;4981044;28;20208;-81
2022/03/17 07:32:48;;;;;;;20.90;14.77;;;9.80;99.90;;;;;;4974567;28;20651;-79
2022/03/17 07:35:15;;;;;;;19.37;14.90;;;9.80;99.90;;;;;;4969844;28;20209;-80
2022/03/17 07:37:44;;;;;;;16.03;13.47;;;9.80;99.90;;;;;;4992055;28;20212;-80
2022/03/17 07:40:12;;;;;;;19.50;14.10;;;9.70;99.90;;;;;;4978673;28;20210;-79
2022/03/17 07:42:40;;;;;;;20.03;14.30;;;9.70;99.90;;;;;;4988527;28;20213;-80
2022/03/17 07:45:25;;;;;;;18.17;14.20;;;9.70;99.90;;;;;;5003397;28;20559;-83
2022/03/17 07:48:32;;;;;;;17.23;13.37;;;9.70;99.90;;;;;;4999805;28;20228;-80
2022/03/17 07:51:08;;;;;;;17.77;14.47;;;9.60;99.90;;;;;;4989997;28;20204;-80
2022/03/17 07:53:36;;;;;;;20.43;15.17;;;9.60;99.90;;;;;;4973274;28;20208;-80
2022/03/17 07:56:04;;;;;;;21.40;15.13;;;9.60;99.90;;;;;;4978134;28;20202;-79
2022/03/17 07:58:33;;;;;;;21.13;16.40;;;9.60;99.90;;;;;;4977184;28;20224;-79
2022/03/17 08:01:04;;;;;;;20.33;16.53;;;9.60;99.90;;;;;;4973632;28;20212;-79
2022/03/17 08:03:33;;;;;;;22.27;16.20;;;9.50;99.90;;;;;;4976942;28;20674;-80
2022/03/17 08:06:00;;;;;;;21.17;16.33;;;9.50;99.90;;;;;;4995749;28;20196;-80
2022/03/17 08:08:28;;;;;;;15.50;11.10;;;9.60;99.90;;;;;;4968147;28;20240;-84
2022/03/17 08:10:57;;;;;;;15.77;11.03;;;9.40;99.90;;;;;;5004620;28;20196;-80
2022/03/17 08:13:25;;;;;;;17.70;11.17;;;9.40;99.90;;;;;;5003774;28;20231;-80
2022/03/17 08:15:54;;;;;;;13.63;8.93;;;9.50;99.90;;;;;;4976353;28;20272;-80
2022/03/17 08:18:21;;;;;;;10.20;8.40;;;9.40;99.90;;;;;;4980731;28;20701;-80
2022/03/17 08:20:50;;;;;;;16.33;8.00;;;9.20;99.90;;;;;;4978102;28;20216;-81
2022/03/17 08:23:21;;;;;;;11.03;7.90;;;9.30;99.90;;;;;;4983103;28;20211;-81
2022/03/17 08:25:50;;;;;;;12.90;8.57;;;9.30;99.90;;;;;;5003599;28;20211;-79
2022/03/17 08:28:19;;;;;;;14.57;7.83;;;9.30;99.90;;;;;;4982222;28;20224;-81
2022/03/17 08:30:48;;;;;;;11.47;8.03;;;9.40;99.90;;;;;;4985394;28;20212;-81
2022/03/17 08:33:17;;;;;;;12.97;7.50;;;9.30;99.90;;;;;;4995905;28;20204;-80
2022/03/17 08:35:46;;;;;;;12.90;8.17;;;9.30;99.90;;;;;;4998218;28;20180;-80
2022/03/17 08:38:14;;;;;;;13.30;7.67;;;9.20;99.90;;;;;;4969766;28;20220;-82
2022/03/17 08:40:42;;;;;;;13.50;7.30;;;9.10;99.90;;;;;;4973981;28;20212;-79
2022/03/17 08:43:10;;;;;;;10.47;7.10;;;9.30;99.90;;;;;;4983623;28;20558;-79
2022/03/17 08:51:09;;;;;;;12.40;7.33;;;9.30;99.90;;;;;;4992886;28;20557;-80
2022/03/17 08:53:38;;;;;;;10.43;7.30;;;9.40;99.90;;;;;;4997530;28;20215;-77
2022/03/17 08:56:06;;;;;;;11.57;7.50;;;9.40;99.90;;;;;;5007571;28;20574;-78
2022/03/17 08:58:35;;;;;;;10.53;7.57;;;9.30;99.90;;;;;;4991444;28;20231;-79
2022/03/17 09:01:05;;;;;;;12.83;7.33;;;9.30;99.90;;;;;;4989710;28;20205;-80
2022/03/17 09:03:32;;;;;;;12.43;6.70;;;9.20;99.90;;;;;;4977336;28;20215;-79
2022/03/17 09:06:01;;;;;;;10.37;6.77;;;9.20;99.90;;;;;;4992312;28;20208;-82
2022/03/17 09:08:29;;;;;;;10.87;6.40;;;9.20;99.90;;;;;;4972645;28;20773;-78
2022/03/17 09:10:58;;;;;;;8.17;5.43;;;9.20;99.90;;;;;;4969837;28;20298;-79
2022/03/17 09:13:28;;;;;;;7.63;5.00;;;9.10;99.90;;;;;;4996996;28;20227;-79
2022/03/17 09:15:56;;;;;;;4.97;4.23;;;9.10;99.90;;;;;;4988575;28;20216;-78
2022/03/17 09:18:24;;;;;;;9.73;4.53;;;9.20;99.90;;;;;;4993797;28;20312;-77
2022/03/17 09:20:51;;;;;;;8.40;4.80;;;9.20;99.90;;;;;;4996986;28;20191;-78
2022/03/17 09:23:19;;;;;;;7.53;5.13;;;9.20;99.90;;;;;;4998615;28;20865;-79
2022/03/17 09:25:50;;;;;;;9.83;5.37;;;9.20;99.90;;;;;;4980247;28;20565;-81
2022/03/17 09:28:19;;;;;;;8.67;4.70;;;9.20;99.90;;;;;;4992808;28;20694;-79
2022/03/17 09:30:47;;;;;;;8.43;5.10;;;9.30;99.90;;;;;;4971285;28;20208;-78
2022/03/17 09:33:37;;;;;;;6.63;4.37;;;9.30;99.90;;;;;;4964663;28;20203;-80
2022/03/17 09:36:25;;;;;;;7.90;4.23;;;9.50;99.90;;;;;;4983946;28;20661;-79
2022/03/17 09:41:35;;;;;;;7.80;3.87;;;10.30;99.90;;;;;;4993722;28;20200;-78
2022/03/17 09:44:04;;;;;;;7.77;4.10;;;9.80;99.90;;;;;;5009699;28;20206;-77
2022/03/17 09:46:33;;;;;;;6.50;3.37;;;9.60;99.90;;;;;;4999227;28;20212;-77
2022/03/17 09:49:03;;;;;;;5.67;3.33;;;9.40;99.90;;;;;;4980245;28;20225;-79
2022/03/17 09:51:30;;;;;;;8.10;4.40;;;9.40;99.90;;;;;;4998912;28;20188;-77
2022/03/17 09:54:00;;;;;;;6.93;4.17;;;9.50;99.90;;;;;;4975407;28;20214;-78
2022/03/17 09:56:29;;;;;;;6.00;4.47;;;9.40;99.90;;;;;;5008227;28;20204;-78
2022/03/17 09:58:58;;;;;;;6.03;4.37;;;9.50;99.90;;;;;;4999264;28;20216;-78
2022/03/17 10:01:31;;;;;;;6.73;4.30;;;9.50;99.90;;;;;;4994972;28;20211;-78
2022/03/17 10:04:00;;;;;;;5.90;3.60;;;9.60;99.90;;;;;;4981216;28;20202;-77
2022/03/17 10:06:28;;;;;;;6.13;3.80;;;9.50;99.90;;;;;;4980204;28;20208;-81
2022/03/17 10:09:01;;;;;;;6.23;4.50;;;9.30;99.90;;;;;;4980155;28;20231;-80
2022/03/17 10:11:37;;;;;;;5.07;4.13;;;9.30;99.90;;;;;;4983913;28;20196;-80
2022/03/17 10:14:12;;;;;;;6.03;4.27;;;9.30;99.90;;;;;;4995052;28;20210;-78
2022/03/17 10:17:06;;;;;;;7.03;5.10;;;9.50;99.90;;;;;;4992745;28;20638;-79
2022/03/17 10:19:37;;;;;;;6.57;4.23;;;9.40;99.90;;;;;;4973251;28;20670;-79
2022/03/17 10:22:43;;;;;;;8.43;5.23;;;9.60;99.90;;;;;;5008161;28;20202;-78
2022/03/17 10:25:17;;;;;;;10.20;6.73;;;10.60;99.90;;;;;;4981760;28;20215;-76
2022/03/17 10:27:46;;;;;;;8.03;5.17;;;10.40;99.90;;;;;;4965588;28;20228;-77
2022/03/17 10:30:22;;;;;;;7.23;5.57;;;10.50;99.90;;;;;;5006287;28;20197;-77
2022/03/17 10:33:00;;;;;;;7.47;5.60;;;10.50;99.90;;;;;;5005853;28;20192;-79
2022/03/17 10:35:34;;;;;;;8.90;5.63;;;10.60;99.90;;;;;;4992295;28;20180;-77
2022/03/17 10:38:10;;;;;;;9.70;5.33;;;10.90;99.90;;;;;;4995485;28;20216;-76
2022/03/17 10:40:40;;;;;;;7.60;4.30;;;10.90;99.90;;;;;;4972922;28;20193;-76
2022/03/17 10:43:30;;;;;;;6.77;3.77;;;10.90;99.90;;;;;;4991898;28;20200;-77
2022/03/17 10:46:05;;;;;;;7.40;3.37;;;11.10;99.90;;;;;;4964573;28;20229;-78
2022/03/17 10:48:35;;;;;;;7.90;3.27;;;11.00;99.90;;;;;;4990421;28;20223;-78
2022/03/17 10:51:02;;;;;;;8.03;3.10;;;10.70;99.90;;;;;;4975764;28;20722;-77
2022/03/17 10:53:37;;;;;;;8.70;2.63;;;10.60;99.90;;;;;;4987413;28;20222;-77
2022/03/17 10:56:12;;;;;;;7.33;2.33;;;10.70;99.90;;;;;;4974713;28;20210;-77
2022/03/17 10:58:44;;;;;;;6.83;2.73;;;10.60;99.90;;;;;;4988209;28;20215;-78
2022/03/17 11:01:22;;;;;;;5.67;2.23;;;10.90;99.90;;;;;;4993367;28;20185;-79
2022/03/17 11:03:51;;;;;;;7.13;2.40;;;10.40;99.90;;;;;;4973878;28;20200;-77
2022/03/17 11:06:18;;;;;;;5.87;2.73;;;10.10;99.90;;;;;;4970813;28;20204;-79
2022/03/17 11:08:46;;;;;;;5.77;2.37;;;9.90;99.90;;;;;;4991015;28;20224;-83
2022/03/17 11:11:13;;;;;;;8.90;2.53;;;10.00;99.90;;;;;;4975128;28;20585;-78
2022/03/17 11:13:42;;;;;;;7.03;3.03;;;9.80;99.90;;;;;;4992435;28;20211;-78
2022/03/17 11:16:31;;;;;;;5.93;2.50;;;9.80;99.90;;;;;;4980555;28;20196;-78
2022/03/17 11:19:00;;;;;;;4.40;2.37;;;9.80;99.90;;;;;;4986498;28;20223;-78
2022/03/17 11:21:29;;;;;;;5.60;2.80;;;9.90;99.90;;;;;;4988665;28;20211;-79
2022/03/17 11:24:04;;;;;;;5.00;2.37;;;9.80;99.90;;;;;;4986664;28;20203;-78
2022/03/17 11:26:35;;;;;;;6.10;2.00;;;9.80;99.90;;;;;;4988989;28;20188;-78
2022/03/17 11:29:08;;;;;;;4.30;1.90;;;9.90;99.90;;;;;;4967679;28;20220;-78
2022/03/17 11:32:00;;;;;;;6.33;1.90;;;9.90;99.90;;;;;;4992668;28;20211;-77
2022/03/17 11:34:49;;;;;;;6.43;2.27;;;10.00;99.90;;;;;;4978187;28;20200;-78
2022/03/17 11:37:26;;;;;;;9.23;1.80;;;9.90;99.90;;;;;;4989568;28;20207;-78
2022/03/17 11:39:56;;;;;;;6.33;1.83;;;10.00;99.90;;;;;;4975646;28;20192;-78
2022/03/17 11:42:46;;;;;;;6.43;1.83;;;9.90;99.90;;;;;;4963922;28;20193;-78
2022/03/17 11:45:37;;;;;;;5.53;1.80;;;10.00;99.90;;;;;;4975449;28;20216;-77
2022/03/17 11:48:10;;;;;;;7.53;2.00;;;10.00;99.90;;;;;;4991088;28;20219;-77
2022/03/17 11:50:52;;;;;;;8.00;1.90;;;9.90;99.90;;;;;;4993079;28;20209;-78
2022/03/17 11:53:40;;;;;;;6.17;1.67;;;9.80;99.90;;;;;;4986354;28;20192;-77
2022/03/17 11:56:27;;;;;;;5.77;1.70;;;9.90;99.90;;;;;;4971292;28;20200;-78
2022/03/17 11:58:55;;;;;;;7.27;2.10;;;9.90;99.90;;;;;;4984477;28;20246;-79
2022/03/17 12:01:29;;;;;;;4.30;1.57;;;10.10;99.90;;;;;;4991372;28;20596;-78
2022/03/17 12:04:08;;;;;;;7.43;1.90;;;10.30;99.90;;;;;;4974436;28;20203;-77
2022/03/17 12:06:39;;;;;;;3.30;1.43;;;10.50;99.90;;;;;;4979051;28;20192;-77
2022/03/17 12:09:10;;;;;;;4.27;1.67;;;10.60;99.90;;;;;;4975558;28;20220;-78
2022/03/17 12:11:39;;;;;;;7.27;1.83;;;10.80;99.90;;;;;;4992584;28;20207;-78
2022/03/17 12:14:48;;;;;;;5.33;1.60;;;10.90;99.90;;;;;;5007612;28;20211;-78
2022/03/17 12:17:18;;;;;;;4.70;1.27;;;11.00;99.90;;;;;;4976316;28;20211;-77
2022/03/17 12:20:07;;;;;;;7.37;1.70;;;11.00;99.90;;;;;;4994340;28;20196;-78
2022/03/17 12:22:39;;;;;;;7.53;1.77;;;11.00;99.90;;;;;;4976629;28;20200;-78
2022/03/17 12:25:17;;;;;;;7.00;1.77;;;11.20;99.90;;;;;;4982944;28;20207;-77
2022/03/17 12:27:49;;;;;;;5.93;1.60;;;11.10;99.90;;;;;;4988987;28;20215;-78
2022/03/17 12:30:18;;;;;;;4.33;1.40;;;11.10;99.90;;;;;;5002425;28;20220;-81
2022/03/17 12:32:47;;;;;;;5.07;1.67;;;10.90;99.30;;;;;;4993617;28;20554;-79
2022/03/17 12:35:17;;;;;;;5.30;1.67;;;11.00;99.60;;;;;;4998746;28;20201;-78
2022/03/17 12:37:46;;;;;;;8.17;2.07;;;11.10;99.90;;;;;;4987133;28;20232;-77
2022/03/17 12:40:15;;;;;;;5.77;2.23;;;11.00;99.20;;;;;;4994565;28;20197;-77
2022/03/17 12:42:44;;;;;;;5.57;1.80;;;10.80;99.60;;;;;;4994856;28;20192;-77
2022/03/17 12:45:14;;;;;;;5.67;2.43;;;10.80;99.80;;;;;;4992364;28;20192;-77
2022/03/17 12:47:43;;;;;;;9.67;2.23;;;10.70;99.60;;;;;;4976625;28;20590;-77
2022/03/17 12:50:15;;;;;;;6.87;1.90;;;10.60;98.90;;;;;;4975030;28;20231;-76
2022/03/17 12:52:46;;;;;;;6.27;1.80;;;10.50;98.80;;;;;;4990779;28;20536;-78
2022/03/17 12:55:16;;;;;;;6.30;2.20;;;10.50;98.70;;;;;;4989847;28;20207;-77
2022/03/17 12:57:44;;;;;;;7.40;1.83;;;10.50;99.20;;;;;;4991920;28;20236;-78
2022/03/17 13:00:13;;;;;;;4.53;1.67;;;10.50;99.20;;;;;;5007131;28;20202;-78
2022/03/17 13:02:45;;;;;;;3.90;1.80;;;10.60;99.10;;;;;;4997860;28;20200;-77
2022/03/17 13:08:02;;;;;;;6.03;1.93;;;10.40;98.10;;;;;;4993446;28;20224;-77
2022/03/17 13:14:20;;;;;;;9.13;2.30;;;10.50;98.00;;;;;;4999648;28;20222;-76
2022/03/17 13:16:08;;;;;;;5.77;1.93;;;10.60;97.60;;;;;;4973797;28;20208;-78
2022/03/17 13:18:43;;;;;;;8.80;2.03;;;10.60;97.80;;;;;;4992879;28;20215;-78